createdAt,value
2022-09-21T00:02:08.047Z,9.23
2022-09-21T00:05:10.848Z,6.07
2022-09-21T00:08:15.784Z,6.13
2022-09-21T00:11:21.134Z,6.17
2022-09-21T00:14:26.971Z,5.20
2022-09-21T00:17:29.694Z,6.27
2022-09-21T00:20:32.249Z,9.07
2022-09-21T00:23:37.319Z,7.53
2022-09-21T00:26:39.856Z,7.20
2022-09-21T00:29:42.522Z,9.23
2022-09-21T00:32:46.385Z,5.93
2022-09-21T00:35:49.137Z,5.40
2022-09-21T00:38:54.581Z,8.03
2022-09-21T00:41:57.373Z,4.50
2022-09-21T00:45:00.317Z,7.80
2022-09-21T00:48:04.084Z,6.33
2022-09-21T00:51:09.083Z,6.47
2022-09-21T00:54:16.596Z,5.40
2022-09-21T00:57:22.315Z,6.53
2022-09-21T01:00:24.969Z,5.97
2022-09-21T01:03:29.186Z,8.17
2022-09-21T01:06:35.395Z,7.20
2022-09-21T01:09:40.741Z,5.90
2022-09-21T01:12:57.064Z,4.30
2022-09-21T01:16:08.204Z,6.30
2022-09-21T01:19:26.628Z,10.57
2022-09-21T01:22:47.426Z,10.30
2022-09-21T01:26:08.447Z,8.40
2022-09-21T01:29:17.878Z,7.67
2022-09-21T01:32:25.182Z,5.13
2022-09-21T01:35:32.224Z,8.07
2022-09-21T01:38:39.757Z,9.50
2022-09-21T01:41:45.273Z,6.60
2022-09-21T01:44:50.542Z,5.73
2022-09-21T01:47:55.585Z,6.43
2022-09-21T01:50:59.638Z,9.07
2022-09-21T01:54:08.018Z,6.90
2022-09-21T01:57:17.594Z,4.57
2022-09-21T02:00:21.762Z,6.30
2022-09-21T02:03:30.776Z,9.60
2022-09-21T02:06:33.314Z,7.27
2022-09-21T02:09:37.443Z,6.87
2022-09-21T02:12:40.357Z,6.13
2022-09-21T02:15:56.278Z,4.57
2022-09-21T02:19:10.780Z,5.17
2022-09-21T02:22:19.475Z,5.90
2022-09-21T02:25:30.755Z,6.80
2022-09-21T02:28:44.311Z,6.63
2022-09-21T02:31:54.622Z,7.30
2022-09-21T02:35:03.216Z,5.57
2022-09-21T02:38:12.981Z,6.93
2022-09-21T02:41:20.954Z,6.13
2022-09-21T02:44:33.046Z,7.83
2022-09-21T02:47:42.916Z,6.20
2022-09-21T02:50:48.412Z,7.07
2022-09-21T02:53:54.747Z,8.07
2022-09-21T02:56:59.646Z,7.17
2022-09-21T03:00:02.997Z,3.23
2022-09-21T03:03:18.168Z,4.27
2022-09-21T03:06:20.786Z,7.27
2022-09-21T03:09:24.356Z,7.83
2022-09-21T03:12:27.333Z,5.00
2022-09-21T03:15:29.967Z,4.37
2022-09-21T03:18:34.894Z,5.73
2022-09-21T03:21:41.147Z,6.40
2022-09-21T03:24:46.323Z,8.47
2022-09-21T03:27:48.795Z,5.90
2022-09-21T03:30:52.654Z,5.43
2022-09-21T03:33:56.689Z,6.00
2022-09-21T03:36:59.479Z,7.50
2022-09-21T03:40:02.484Z,7.80
2022-09-21T03:43:05.253Z,9.37
2022-09-21T03:46:07.824Z,5.37
2022-09-21T03:49:11.683Z,8.70
2022-09-21T03:52:14.149Z,8.17
2022-09-21T03:55:17.074Z,8.10
2022-09-21T03:58:19.995Z,9.57
2022-09-21T04:01:22.497Z,11.37
2022-09-21T04:04:26.353Z,9.00
2022-09-21T04:07:32.274Z,7.47
2022-09-21T04:10:34.748Z,7.97
2022-09-21T04:13:37.239Z,7.10
2022-09-21T04:16:39.733Z,6.60
2022-09-21T04:19:44.978Z,6.10
2022-09-21T04:22:47.673Z,6.50
2022-09-21T04:25:51.226Z,7.87
2022-09-21T04:28:55.168Z,8.37
2022-09-21T04:31:58.101Z,6.30
2022-09-21T04:35:01.962Z,5.33
2022-09-21T04:38:04.566Z,6.47
2022-09-21T04:41:07.180Z,6.70
2022-09-21T04:44:09.669Z,7.23
2022-09-21T04:47:12.131Z,5.63
2022-09-21T04:50:16.397Z,15.47
2022-09-21T04:53:19.037Z,5.03
2022-09-21T04:56:21.729Z,11.00
2022-09-21T04:59:24.530Z,6.67
2022-09-21T05:02:27.007Z,8.37
2022-09-21T05:05:31.878Z,8.43
2022-09-21T05:08:54.335Z,7.27
2022-09-21T05:11:56.825Z,6.90
2022-09-21T05:14:59.538Z,7.90
2022-09-21T05:18:02.007Z,5.50
2022-09-21T05:21:07.359Z,10.93
2022-09-21T05:24:10.478Z,7.63
2022-09-21T05:27:13.386Z,7.73
2022-09-21T05:30:16.723Z,8.63
2022-09-21T05:33:21.618Z,9.30
2022-09-21T05:36:39.264Z,9.20
2022-09-21T05:39:42.893Z,4.80
2022-09-21T05:42:46.153Z,9.53
2022-09-21T05:45:55.675Z,14.20
2022-09-21T05:49:03.531Z,12.27
2022-09-21T05:52:18.134Z,8.33
2022-09-21T05:55:30.674Z,5.60
2022-09-21T05:58:40.609Z,6.60
2022-09-21T06:01:57.151Z,5.00
2022-09-21T06:05:02.364Z,11.50
2022-09-21T06:08:06.192Z,9.17
2022-09-21T06:11:08.668Z,7.97
2022-09-21T06:14:11.157Z,12.30
2022-09-21T06:17:13.656Z,10.87
2022-09-21T06:20:16.397Z,9.03
2022-09-21T06:23:20.241Z,12.37
2022-09-21T06:26:22.724Z,10.33
2022-09-21T06:29:25.259Z,11.00
2022-09-21T06:32:27.739Z,18.00
2022-09-21T06:35:30.972Z,8.17
2022-09-21T06:38:35.528Z,12.27
2022-09-21T06:41:38.304Z,10.10
2022-09-21T06:44:40.823Z,8.07
2022-09-21T06:47:47.893Z,8.93
2022-09-21T06:50:50.473Z,8.87
2022-09-21T06:53:57.501Z,13.83
2022-09-21T06:57:00.307Z,9.50
2022-09-21T07:00:03.095Z,11.40
2022-09-21T07:03:05.668Z,10.73
2022-09-21T07:06:09.270Z,13.43
2022-09-21T07:12:36.008Z,12.90
2022-09-21T07:15:39.259Z,11.80
2022-09-21T07:18:44.078Z,14.70
2022-09-21T07:21:47.447Z,17.37
2022-09-21T07:24:51.291Z,15.27
2022-09-21T07:27:53.789Z,21.77
2022-09-21T07:30:56.746Z,16.47
2022-09-21T07:33:59.413Z,16.97
2022-09-21T07:37:01.896Z,17.30
2022-09-21T07:40:06.582Z,15.07
2022-09-21T07:43:09.135Z,15.03
2022-09-21T07:46:14.437Z,13.53
2022-09-21T07:49:16.943Z,12.73
2022-09-21T07:52:19.426Z,13.70
2022-09-21T07:55:23.286Z,12.90
2022-09-21T07:58:43.241Z,12.60
2022-09-21T08:01:45.752Z,12.77
2022-09-21T08:04:48.236Z,9.83
2022-09-21T08:07:51.032Z,11.87
2022-09-21T08:10:55.698Z,15.83
2022-09-21T08:14:00.870Z,13.20
2022-09-21T08:17:03.893Z,11.63
2022-09-21T08:20:07.125Z,8.13
2022-09-21T08:23:09.800Z,10.70
2022-09-21T08:26:19.304Z,11.93
2022-09-21T08:29:21.951Z,7.07
2022-09-21T08:32:49.292Z,6.97
2022-09-21T08:35:53.037Z,14.33
2022-09-21T08:38:56.811Z,5.33
2022-09-21T08:42:14.763Z,6.93
2022-09-21T08:45:20.761Z,6.93
2022-09-21T08:48:30.009Z,5.87
2022-09-21T08:51:38.187Z,4.67
2022-09-21T08:54:48.546Z,6.13
2022-09-21T08:57:52.374Z,5.10
2022-09-21T09:01:07.587Z,7.67
2022-09-21T09:04:36.750Z,4.47
2022-09-21T09:08:00.836Z,6.53
2022-09-21T09:11:16.269Z,6.70
2022-09-21T09:14:37.751Z,6.43
2022-09-21T09:17:49.668Z,5.43
2022-09-21T09:20:58.083Z,5.23
2022-09-21T09:24:05.416Z,6.47
2022-09-21T09:27:15.275Z,3.77
2022-09-21T09:30:21.614Z,3.07
2022-09-21T09:33:28.920Z,4.70
2022-09-21T09:36:57.413Z,3.13
2022-09-21T09:39:58.923Z,3.67
2022-09-21T09:43:08.513Z,3.30
2022-09-21T09:46:21.044Z,5.83
2022-09-21T09:49:34.752Z,2.77
2022-09-21T09:52:37.779Z,5.83
2022-09-21T09:55:43.660Z,3.83
2022-09-21T09:58:51.545Z,6.33
2022-09-21T10:02:03.568Z,8.30
2022-09-21T10:05:07.387Z,9.77
2022-09-21T10:08:28.769Z,6.43
2022-09-21T10:11:38.050Z,3.23
2022-09-21T10:14:40.559Z,1.77
2022-09-21T10:17:46.825Z,4.60
2022-09-21T10:20:57.511Z,1.87
2022-09-21T10:24:02.205Z,2.23
2022-09-21T10:27:10.260Z,4.07
2022-09-21T10:30:34.137Z,2.77
2022-09-21T10:33:51.036Z,3.35
2022-09-21T10:36:56.011Z,2.87
2022-09-21T10:39:58.475Z,2.88
2022-09-21T10:43:01.491Z,3.30
2022-09-21T10:46:04.845Z,1.90
2022-09-21T10:49:17.353Z,3.00
2022-09-21T10:52:22.475Z,2.23
2022-09-21T10:55:26.026Z,4.57
2022-09-21T10:58:29.440Z,2.23
2022-09-21T11:01:32.417Z,1.13
2022-09-21T11:04:44.629Z,2.90
2022-09-21T11:07:53.109Z,2.92
2022-09-21T11:11:12.669Z,3.70
2022-09-21T11:14:27.061Z,2.80
2022-09-21T11:17:37.514Z,1.45
2022-09-21T11:20:48.626Z,1.45
2022-09-21T11:24:00.530Z,2.08
2022-09-21T11:27:09.172Z,3.95
2022-09-21T11:30:14.086Z,4.38
2022-09-21T11:33:31.877Z,1.75
2022-09-21T11:36:47.494Z,1.98
2022-09-21T11:40:03.154Z,1.55
2022-09-21T11:43:17.063Z,4.43
2022-09-21T11:46:27.156Z,1.63
2022-09-21T11:49:48.623Z,2.50
2022-09-21T11:53:07.089Z,2.30
2022-09-21T11:56:29.543Z,1.05
2022-09-21T11:59:51.517Z,2.25
2022-09-21T12:03:23.135Z,1.52
2022-09-21T12:06:39.679Z,2.63
2022-09-21T12:09:58.785Z,5.13
2022-09-21T12:13:06.463Z,2.35
2022-09-21T12:16:15.550Z,3.83
2022-09-21T12:19:29.769Z,3.10
2022-09-21T12:22:36.366Z,2.35
2022-09-21T12:25:45.806Z,1.17
2022-09-21T12:28:52.838Z,1.00
2022-09-21T12:32:03.259Z,1.58
2022-09-21T12:35:13.139Z,2.08
2022-09-21T12:38:19.275Z,8.27
2022-09-21T12:41:31.339Z,5.05
2022-09-21T12:44:51.959Z,1.00
2022-09-21T12:48:00.302Z,1.60
2022-09-21T12:51:11.750Z,0.98
2022-09-21T12:54:27.510Z,4.10
2022-09-21T12:58:04.524Z,1.50
2022-09-21T13:01:17.601Z,0.85
2022-09-21T13:04:41.605Z,2.25
2022-09-21T13:08:09.129Z,4.28
2022-09-21T13:11:12.089Z,0.93
2022-09-21T13:14:18.149Z,3.17
2022-09-21T13:17:24.726Z,1.92
2022-09-21T13:20:27.988Z,1.45
2022-09-21T13:23:39.847Z,2.30
2022-09-21T13:26:44.656Z,2.13
2022-09-21T13:30:29.977Z,1.13
2022-09-21T13:33:39.634Z,1.45
2022-09-21T13:36:43.326Z,0.90
2022-09-21T13:39:49.437Z,3.25
2022-09-21T13:42:52.017Z,1.20
2022-09-21T13:46:01.432Z,1.95
2022-09-21T13:49:17.509Z,2.15
2022-09-21T13:52:39.341Z,2.38
2022-09-21T13:55:49.867Z,1.37
2022-09-21T13:58:57.199Z,3.30
2022-09-21T14:02:01.712Z,2.80
2022-09-21T14:05:10.436Z,1.20
2022-09-21T14:08:23.279Z,1.23
2022-09-21T14:11:33.451Z,2.37
2022-09-21T14:14:38.192Z,2.23
2022-09-21T14:17:42.132Z,5.10
2022-09-21T14:21:09.398Z,2.50
2022-09-21T14:24:37.321Z,0.73
2022-09-21T14:27:45.922Z,1.17
2022-09-21T14:30:57.478Z,3.50
2022-09-21T14:34:05.513Z,1.10
2022-09-21T14:37:19.824Z,2.90
2022-09-21T14:40:25.367Z,1.43
2022-09-21T14:43:33.765Z,2.20
2022-09-21T14:46:57.014Z,2.40
2022-09-21T14:50:15.493Z,2.47
2022-09-21T14:53:40.254Z,0.50
2022-09-21T14:56:58.717Z,1.90
2022-09-21T15:00:15.495Z,0.70
2022-09-21T15:03:36.955Z,1.97
2022-09-21T15:07:06.098Z,5.40
2022-09-21T15:10:40.014Z,2.60
2022-09-21T15:14:12.097Z,0.83
2022-09-21T15:17:26.023Z,3.93
2022-09-21T15:20:29.969Z,7.77
2022-09-21T15:23:35.862Z,3.37
2022-09-21T15:26:40.369Z,3.43
2022-09-21T15:29:48.840Z,1.30
2022-09-21T15:32:55.038Z,2.90
2022-09-21T15:36:02.543Z,0.97
2022-09-21T15:39:06.872Z,1.20
2022-09-21T15:42:22.350Z,2.03
2022-09-21T15:45:27.985Z,5.43
2022-09-21T15:48:34.169Z,1.90
2022-09-21T15:51:41.377Z,1.97
2022-09-21T15:54:48.999Z,1.70
2022-09-21T15:57:56.229Z,1.50
2022-09-21T16:00:59.691Z,2.13
2022-09-21T16:04:07.126Z,4.93
2022-09-21T16:07:26.781Z,5.93
2022-09-21T16:10:40.256Z,6.67
2022-09-21T16:14:00.499Z,6.73
2022-09-21T16:17:25.642Z,10.60
2022-09-21T16:20:43.653Z,15.40
2022-09-21T16:23:47.991Z,5.20
2022-09-21T16:26:59.347Z,2.23
2022-09-21T16:30:02.319Z,4.20
2022-09-21T16:33:42.949Z,1.67
2022-09-21T16:36:46.652Z,12.13
2022-09-21T16:39:49.122Z,13.57
2022-09-21T16:42:53.558Z,3.97
2022-09-21T16:45:56.049Z,7.37
2022-09-21T16:49:00.703Z,3.00
2022-09-21T16:52:03.747Z,6.30
2022-09-21T16:55:07.121Z,5.57
2022-09-21T16:58:11.489Z,3.97
2022-09-21T17:01:15.720Z,7.20
2022-09-21T17:04:19.143Z,12.97
2022-09-21T17:07:21.649Z,16.77
2022-09-21T17:10:29.196Z,10.30
2022-09-21T17:13:33.401Z,5.43
2022-09-21T17:16:35.861Z,5.20
2022-09-21T17:19:41.931Z,2.20
2022-09-21T17:22:45.199Z,2.73
2022-09-21T17:25:47.674Z,7.20
2022-09-21T17:28:53.436Z,8.10
2022-09-21T17:31:57.583Z,12.13
2022-09-21T17:35:13.070Z,9.73
2022-09-21T17:38:15.573Z,7.37
2022-09-21T17:41:25.293Z,15.43
2022-09-21T17:44:45.388Z,16.13
2022-09-21T17:47:50.248Z,7.63
2022-09-21T17:50:53.338Z,11.00
2022-09-21T17:53:55.316Z,6.57
2022-09-21T17:57:04.882Z,6.37
2022-09-21T18:00:15.080Z,10.10
2022-09-21T18:03:22.085Z,11.47
2022-09-21T18:06:25.897Z,13.73
2022-09-21T18:09:28.866Z,11.87
2022-09-21T18:13:07.684Z,14.10
2022-09-21T18:16:24.154Z,13.97
2022-09-21T18:19:49.377Z,14.77
2022-09-21T18:22:59.963Z,7.50
2022-09-21T18:26:03.029Z,7.20
2022-09-21T18:29:28.517Z,8.80
2022-09-21T18:32:46.263Z,9.10
2022-09-21T18:35:59.736Z,7.80
2022-09-21T18:39:18.079Z,7.40
2022-09-21T18:42:39.941Z,14.03
2022-09-21T18:45:47.978Z,12.70
2022-09-21T18:49:00.008Z,9.27
2022-09-21T18:52:14.995Z,9.33
2022-09-21T18:55:26.686Z,6.33
2022-09-21T18:58:30.456Z,8.53
2022-09-21T19:01:34.224Z,6.07
2022-09-21T19:04:38.883Z,7.37
2022-09-21T19:07:49.426Z,5.03
2022-09-21T19:10:57.945Z,6.57
2022-09-21T19:14:08.360Z,2.83
2022-09-21T19:17:22.819Z,2.90
2022-09-21T19:20:38.058Z,3.67
2022-09-21T19:23:51.376Z,4.07
2022-09-21T19:27:08.519Z,3.90
2022-09-21T19:30:13.982Z,3.60
2022-09-21T19:33:48.262Z,5.83
2022-09-21T19:36:50.001Z,3.17
2022-09-21T19:39:52.798Z,5.40
2022-09-21T19:43:20.563Z,6.77
2022-09-21T19:46:33.370Z,4.20
2022-09-21T19:49:46.155Z,7.47
2022-09-21T19:52:52.064Z,4.03
2022-09-21T19:56:15.293Z,8.57
2022-09-21T19:59:35.551Z,4.23
2022-09-21T20:02:45.220Z,4.93
2022-09-21T20:05:58.765Z,5.53
2022-09-21T20:09:10.773Z,9.53
2022-09-21T20:12:20.417Z,5.80
2022-09-21T20:15:29.346Z,3.57
2022-09-21T20:18:39.635Z,2.80
2022-09-21T20:21:44.620Z,3.23
2022-09-21T20:24:56.665Z,3.03
2022-09-21T20:27:59.780Z,5.37
2022-09-21T20:31:02.616Z,7.83
2022-09-21T20:34:05.681Z,4.03
2022-09-21T20:37:12.657Z,4.97
2022-09-21T20:40:17.267Z,5.13
2022-09-21T20:43:22.001Z,4.20
2022-09-21T20:46:24.583Z,3.77
2022-09-21T20:49:27.091Z,5.80
2022-09-21T20:52:29.967Z,3.07
2022-09-21T20:55:34.137Z,3.57
2022-09-21T20:58:36.657Z,3.37
2022-09-21T21:01:39.195Z,4.37
2022-09-21T21:04:41.918Z,3.27
2022-09-21T21:07:44.413Z,5.03
2022-09-21T21:10:48.242Z,3.57
2022-09-21T21:13:50.725Z,7.30
2022-09-21T21:16:53.391Z,7.50
2022-09-21T21:19:55.962Z,7.13
2022-09-21T21:22:58.462Z,10.20
2022-09-21T21:26:06.317Z,6.30
2022-09-21T21:29:08.954Z,6.17
2022-09-21T21:32:11.508Z,4.10
2022-09-21T21:35:14.223Z,3.83
2022-09-21T21:38:16.720Z,5.43
2022-09-21T21:41:20.783Z,6.97
2022-09-21T21:44:23.288Z,12.47
2022-09-21T21:47:39.127Z,7.57
2022-09-21T21:50:42.569Z,3.53
2022-09-21T21:53:45.743Z,6.10
2022-09-21T21:56:49.972Z,6.00
2022-09-21T21:59:52.466Z,8.13
2022-09-21T22:02:57.025Z,9.53
2022-09-21T22:05:59.512Z,13.37
2022-09-21T22:09:03.165Z,10.50
2022-09-21T22:12:07.686Z,7.10
2022-09-21T22:15:11.459Z,4.37
2022-09-21T22:18:13.938Z,3.20
2022-09-21T22:21:17.841Z,7.60
2022-09-21T22:24:21.017Z,4.80
2022-09-21T22:27:24.860Z,3.50
2022-09-21T22:30:27.417Z,2.93
2022-09-21T22:33:33.418Z,2.93
2022-09-21T22:36:37.862Z,6.37
2022-09-21T22:39:40.337Z,9.70
2022-09-21T22:42:46.418Z,2.90
2022-09-21T22:45:48.927Z,3.63
2022-09-21T22:48:52.029Z,5.80
2022-09-21T22:51:54.553Z,5.13
2022-09-21T22:54:57.020Z,4.80
2022-09-21T22:58:00.854Z,6.20
2022-09-21T23:01:05.757Z,7.07
2022-09-21T23:04:10.482Z,6.53
2022-09-21T23:07:13.237Z,5.93
2022-09-21T23:10:15.856Z,5.47
2022-09-21T23:13:19.648Z,4.50
2022-09-21T23:16:22.943Z,4.20
2022-09-21T23:19:25.529Z,2.67
2022-09-21T23:22:28.017Z,4.53
2022-09-21T23:25:30.930Z,3.67
2022-09-21T23:28:35.614Z,3.33
2022-09-21T23:31:42.375Z,3.20
2022-09-21T23:34:47.095Z,4.13
2022-09-21T23:37:49.941Z,3.70
2022-09-21T23:40:52.433Z,6.93
2022-09-21T23:43:56.820Z,3.70
2022-09-21T23:46:59.380Z,3.83
2022-09-21T23:50:01.899Z,7.00
2022-09-21T23:53:04.374Z,5.00
2022-09-21T23:56:08.406Z,4.07
2022-09-21T23:59:12.905Z,3.90
